sensor_id;sensor_type;location;lat;lon;timestamp;noise_LAeq;noise_LA_min;noise_LA_max;noise_LA01;noise_LA95
67398;Laerm;57728;50.448;18.824;2022-08-19T00:00:48;32.10;30.27;40.35;;
67398;Laerm;57728;50.448;18.824;2022-08-19T00:02:52;32.13;30.48;41.12;;
67398;Laerm;57728;50.448;18.824;2022-08-19T00:04:54;32.29;30.29;34.88;;
67398;Laerm;57728;50.448;18.824;2022-08-19T00:06:57;32.36;30.41;39.73;;
67398;Laerm;57728;50.448;18.824;2022-08-19T00:08:58;32.02;30.22;34.78;;
67398;Laerm;57728;50.448;18.824;2022-08-19T00:11:02;32.12;30.20;39.25;;
67398;Laerm;57728;50.448;18.824;2022-08-19T00:13:03;31.95;30.38;35.92;;
67398;Laerm;57728;50.448;18.824;2022-08-19T00:15:09;32.39;30.38;39.92;;
67398;Laerm;57728;50.448;18.824;2022-08-19T00:17:13;32.28;30.13;35.89;;
67398;Laerm;57728;50.448;18.824;2022-08-19T00:19:15;32.23;30.43;43.95;;
67398;Laerm;57728;50.448;18.824;2022-08-19T00:21:17;32.11;30.50;38.88;;
67398;Laerm;57728;50.448;18.824;2022-08-19T00:23:19;32.24;30.53;46.65;;
67398;Laerm;57728;50.448;18.824;2022-08-19T00:25:20;31.94;30.28;33.82;;
67398;Laerm;57728;50.448;18.824;2022-08-19T00:27:21;32.05;30.14;40.60;;
67398;Laerm;57728;50.448;18.824;2022-08-19T00:29:25;31.97;30.52;37.26;;
67398;Laerm;57728;50.448;18.824;2022-08-19T00:31:27;31.96;30.24;41.05;;
67398;Laerm;57728;50.448;18.824;2022-08-19T00:33:29;32.32;30.35;41.36;;
67398;Laerm;57728;50.448;18.824;2022-08-19T00:35:34;32.08;30.49;39.87;;
67398;Laerm;57728;50.448;18.824;2022-08-19T00:37:35;32.11;30.36;40.02;;
67398;Laerm;57728;50.448;18.824;2022-08-19T00:39:36;32.03;30.51;36.33;;
67398;Laerm;57728;50.448;18.824;2022-08-19T00:41:40;32.06;30.34;36.66;;
67398;Laerm;57728;50.448;18.824;2022-08-19T00:43:41;32.31;30.46;47.47;;
67398;Laerm;57728;50.448;18.824;2022-08-19T00:45:42;32.18;30.23;41.59;;
67398;Laerm;57728;50.448;18.824;2022-08-19T00:47:46;32.90;30.49;48.25;;
67398;Laerm;57728;50.448;18.824;2022-08-19T00:49:57;32.93;30.52;43.51;;
67398;Laerm;57728;50.448;18.824;2022-08-19T00:52:18;32.30;30.25;41.12;;
67398;Laerm;57728;50.448;18.824;2022-08-19T00:54:21;32.07;30.07;39.41;;
67398;Laerm;57728;50.448;18.824;2022-08-19T00:56:24;32.51;30.75;44.72;;
67398;Laerm;57728;50.448;18.824;2022-08-19T00:58:33;32.46;30.90;38.68;;
67398;Laerm;57728;50.448;18.824;2022-08-19T01:00:37;32.66;31.09;38.83;;
67398;Laerm;57728;50.448;18.824;2022-08-19T01:02:41;32.88;30.27;45.41;;
67398;Laerm;57728;50.448;18.824;2022-08-19T01:04:42;32.21;30.69;42.61;;
67398;Laerm;57728;50.448;18.824;2022-08-19T01:06:44;32.48;30.50;42.83;;
67398;Laerm;57728;50.448;18.824;2022-08-19T01:08:45;32.15;30.12;39.01;;
67398;Laerm;57728;50.448;18.824;2022-08-19T01:10:56;32.62;30.40;40.94;;
67398;Laerm;57728;50.448;18.824;2022-08-19T01:13:01;32.14;30.46;42.64;;
67398;Laerm;57728;50.448;18.824;2022-08-19T01:15:06;32.30;30.59;43.73;;
67398;Laerm;57728;50.448;18.824;2022-08-19T01:17:12;32.07;30.52;41.86;;
67398;Laerm;57728;50.448;18.824;2022-08-19T01:19:34;32.50;30.44;46.52;;
67398;Laerm;57728;50.448;18.824;2022-08-19T01:21:55;32.04;30.42;39.37;;
67398;Laerm;57728;50.448;18.824;2022-08-19T01:23:59;32.60;30.53;42.46;;
67398;Laerm;57728;50.448;18.824;2022-08-19T01:26:01;32.18;30.54;41.76;;
67398;Laerm;57728;50.448;18.824;2022-08-19T01:28:04;32.14;30.63;39.66;;
67398;Laerm;57728;50.448;18.824;2022-08-19T01:30:10;32.47;30.38;44.23;;
67398;Laerm;57728;50.448;18.824;2022-08-19T01:32:16;32.12;30.55;43.62;;
67398;Laerm;57728;50.448;18.824;2022-08-19T01:34:18;32.86;30.45;48.25;;
67398;Laerm;57728;50.448;18.824;2022-08-19T01:36:32;32.32;30.36;36.21;;
67398;Laerm;57728;50.448;18.824;2022-08-19T01:38:39;32.04;30.59;35.93;;
67398;Laerm;57728;50.448;18.824;2022-08-19T01:40:40;32.31;30.63;39.95;;
67398;Laerm;57728;50.448;18.824;2022-08-19T01:42:42;32.58;30.54;45.36;;
67398;Laerm;57728;50.448;18.824;2022-08-19T01:44:44;33.75;30.62;50.32;;
67398;Laerm;57728;50.448;18.824;2022-08-19T01:46:48;32.28;30.29;42.90;;
67398;Laerm;57728;50.448;18.824;2022-08-19T01:48:49;32.23;30.49;41.36;;
67398;Laerm;57728;50.448;18.824;2022-08-19T01:50:51;32.32;30.47;39.10;;
67398;Laerm;57728;50.448;18.824;2022-08-19T01:52:52;32.25;30.15;45.56;;
67398;Laerm;57728;50.448;18.824;2022-08-19T01:54:53;32.27;30.44;42.78;;
67398;Laerm;57728;50.448;18.824;2022-08-19T01:57:03;31.98;30.24;34.60;;
67398;Laerm;57728;50.448;18.824;2022-08-19T01:59:12;32.77;30.27;42.69;;
67398;Laerm;57728;50.448;18.824;2022-08-19T02:01:15;32.21;30.71;39.79;;
67398;Laerm;57728;50.448;18.824;2022-08-19T02:03:17;32.72;30.62;48.86;;
67398;Laerm;57728;50.448;18.824;2022-08-19T02:05:18;32.43;30.30;45.88;;
67398;Laerm;57728;50.448;18.824;2022-08-19T02:07:21;32.58;30.53;41.50;;
67398;Laerm;57728;50.448;18.824;2022-08-19T02:09:23;33.28;31.66;40.67;;
67398;Laerm;57728;50.448;18.824;2022-08-19T02:11:30;33.25;30.74;43.07;;
67398;Laerm;57728;50.448;18.824;2022-08-19T02:13:34;32.26;30.53;35.81;;
67398;Laerm;57728;50.448;18.824;2022-08-19T02:15:36;33.32;30.67;45.32;;
67398;Laerm;57728;50.448;18.824;2022-08-19T02:17:39;32.13;30.36;35.09;;
67398;Laerm;57728;50.448;18.824;2022-08-19T02:19:40;32.32;30.42;39.89;;
67398;Laerm;57728;50.448;18.824;2022-08-19T02:21:42;32.01;30.04;35.62;;
67398;Laerm;57728;50.448;18.824;2022-08-19T02:23:44;32.23;30.41;42.90;;
67398;Laerm;57728;50.448;18.824;2022-08-19T02:25:48;32.35;30.65;42.92;;
67398;Laerm;57728;50.448;18.824;2022-08-19T02:27:50;32.21;30.62;38.80;;
67398;Laerm;57728;50.448;18.824;2022-08-19T02:29:52;32.35;30.55;49.99;;
67398;Laerm;57728;50.448;18.824;2022-08-19T02:31:53;32.29;30.39;41.93;;
67398;Laerm;57728;50.448;18.824;2022-08-19T02:33:56;32.19;30.39;36.45;;
67398;Laerm;57728;50.448;18.824;2022-08-19T02:35:57;33.14;30.53;48.78;;
67398;Laerm;57728;50.448;18.824;2022-08-19T02:37:59;32.71;30.55;42.55;;
67398;Laerm;57728;50.448;18.824;2022-08-19T02:40:20;32.40;30.40;38.57;;
67398;Laerm;57728;50.448;18.824;2022-08-19T02:42:22;32.16;30.53;39.21;;
67398;Laerm;57728;50.448;18.824;2022-08-19T02:44:23;32.12;30.52;35.33;;
67398;Laerm;57728;50.448;18.824;2022-08-19T02:46:29;32.18;30.59;38.83;;
67398;Laerm;57728;50.448;18.824;2022-08-19T02:48:30;32.37;30.56;37.69;;
67398;Laerm;57728;50.448;18.824;2022-08-19T02:50:33;32.17;30.53;40.07;;
67398;Laerm;57728;50.448;18.824;2022-08-19T02:52:35;32.55;30.89;42.94;;
67398;Laerm;57728;50.448;18.824;2022-08-19T02:54:37;32.13;30.61;34.36;;
67398;Laerm;57728;50.448;18.824;2022-08-19T02:56:41;32.41;30.53;41.22;;
67398;Laerm;57728;50.448;18.824;2022-08-19T02:58:47;32.35;30.72;43.39;;
67398;Laerm;57728;50.448;18.824;2022-08-19T03:00:53;32.48;30.60;36.38;;
67398;Laerm;57728;50.448;18.824;2022-08-19T03:02:55;33.07;30.46;43.82;;
67398;Laerm;57728;50.448;18.824;2022-08-19T03:04:57;32.35;30.68;41.93;;
67398;Laerm;57728;50.448;18.824;2022-08-19T03:06:58;33.36;30.90;59.07;;
67398;Laerm;57728;50.448;18.824;2022-08-19T03:08:59;33.79;30.82;43.59;;
67398;Laerm;57728;50.448;18.824;2022-08-19T03:11:02;32.79;30.98;44.98;;
67398;Laerm;57728;50.448;18.824;2022-08-19T03:13:03;32.51;30.80;36.09;;
67398;Laerm;57728;50.448;18.824;2022-08-19T03:15:07;32.72;30.91;43.02;;
67398;Laerm;57728;50.448;18.824;2022-08-19T03:17:10;33.18;31.01;41.72;;
67398;Laerm;57728;50.448;18.824;2022-08-19T03:19:12;33.59;31.15;42.07;;
67398;Laerm;57728;50.448;18.824;2022-08-19T03:21:26;33.26;31.20;47.43;;
67398;Laerm;57728;50.448;18.824;2022-08-19T03:23:28;34.17;31.29;49.43;;
67398;Laerm;57728;50.448;18.824;2022-08-19T03:25:29;35.66;31.38;51.93;;
67398;Laerm;57728;50.448;18.824;2022-08-19T03:27:30;33.55;31.64;42.70;;
67398;Laerm;57728;50.448;18.824;2022-08-19T03:29:32;34.29;30.94;43.30;;
67398;Laerm;57728;50.448;18.824;2022-08-19T03:31:40;33.67;31.70;44.39;;
67398;Laerm;57728;50.448;18.824;2022-08-19T03:33:42;33.34;31.17;40.14;;
67398;Laerm;57728;50.448;18.824;2022-08-19T03:35:44;35.47;31.71;49.25;;
67398;Laerm;57728;50.448;18.824;2022-08-19T03:37:45;33.01;31.42;44.68;;
67398;Laerm;57728;50.448;18.824;2022-08-19T03:39:46;34.20;31.36;46.18;;
67398;Laerm;57728;50.448;18.824;2022-08-19T03:41:51;33.19;31.14;48.52;;
67398;Laerm;57728;50.448;18.824;2022-08-19T03:43:54;35.49;31.36;47.89;;
67398;Laerm;57728;50.448;18.824;2022-08-19T03:46:11;33.84;31.05;50.35;;
67398;Laerm;57728;50.448;18.824;2022-08-19T03:48:13;32.86;31.08;37.59;;
67398;Laerm;57728;50.448;18.824;2022-08-19T03:50:15;32.93;31.20;40.81;;
67398;Laerm;57728;50.448;18.824;2022-08-19T03:52:16;33.24;30.94;45.01;;
67398;Laerm;57728;50.448;18.824;2022-08-19T03:54:22;34.30;30.99;43.82;;
67398;Laerm;57728;50.448;18.824;2022-08-19T03:56:25;32.81;31.25;39.30;;
67398;Laerm;57728;50.448;18.824;2022-08-19T03:58:29;32.90;31.12;36.16;;
67398;Laerm;57728;50.448;18.824;2022-08-19T04:00:31;33.21;31.12;40.19;;
67398;Laerm;57728;50.448;18.824;2022-08-19T04:02:35;32.88;31.04;40.13;;
67398;Laerm;57728;50.448;18.824;2022-08-19T04:04:39;34.13;31.48;42.99;;
67398;Laerm;57728;50.448;18.824;2022-08-19T04:06:43;34.30;31.28;41.42;;
67398;Laerm;57728;50.448;18.824;2022-08-19T04:08:45;34.63;31.77;48.41;;
67398;Laerm;57728;50.448;18.824;2022-08-19T04:10:48;33.36;30.90;40.43;;
67398;Laerm;57728;50.448;18.824;2022-08-19T04:12:50;33.84;31.19;43.19;;
67398;Laerm;57728;50.448;18.824;2022-08-19T04:14:51;34.93;31.40;47.25;;
67398;Laerm;57728;50.448;18.824;2022-08-19T04:16:52;33.43;31.44;42.28;;
67398;Laerm;57728;50.448;18.824;2022-08-19T04:18:56;34.53;31.35;42.85;;
67398;Laerm;57728;50.448;18.824;2022-08-19T04:21:00;33.79;31.07;44.10;;
67398;Laerm;57728;50.448;18.824;2022-08-19T04:23:01;34.13;31.47;43.93;;
67398;Laerm;57728;50.448;18.824;2022-08-19T04:25:04;34.68;31.65;43.52;;
67398;Laerm;57728;50.448;18.824;2022-08-19T04:27:05;37.40;31.68;46.51;;
67398;Laerm;57728;50.448;18.824;2022-08-19T04:29:17;34.40;31.45;48.30;;
67398;Laerm;57728;50.448;18.824;2022-08-19T04:31:28;34.21;31.44;51.94;;
67398;Laerm;57728;50.448;18.824;2022-08-19T04:33:30;42.60;31.49;66.70;;
67398;Laerm;57728;50.448;18.824;2022-08-19T04:35:45;35.07;31.82;43.32;;
67398;Laerm;57728;50.448;18.824;2022-08-19T04:37:48;33.83;31.71;39.93;;
67398;Laerm;57728;50.448;18.824;2022-08-19T04:39:49;42.99;31.43;64.81;;
67398;Laerm;57728;50.448;18.824;2022-08-19T04:42:09;39.28;31.82;60.99;;
67398;Laerm;57728;50.448;18.824;2022-08-19T04:44:35;33.79;31.66;42.32;;
67398;Laerm;57728;50.448;18.824;2022-08-19T04:46:37;33.14;31.55;36.19;;
67398;Laerm;57728;50.448;18.824;2022-08-19T04:48:39;34.27;31.90;43.68;;
67398;Laerm;57728;50.448;18.824;2022-08-19T04:50:44;34.33;31.71;44.10;;
67398;Laerm;57728;50.448;18.824;2022-08-19T04:52:45;33.40;31.51;39.13;;
67398;Laerm;57728;50.448;18.824;2022-08-19T04:54:46;33.63;31.68;44.87;;
67398;Laerm;57728;50.448;18.824;2022-08-19T04:56:49;35.28;31.92;41.29;;
67398;Laerm;57728;50.448;18.824;2022-08-19T04:58:51;36.20;32.29;55.42;;
67398;Laerm;57728;50.448;18.824;2022-08-19T05:00:53;34.62;31.96;46.90;;
67398;Laerm;57728;50.448;18.824;2022-08-19T05:02:55;33.22;31.31;40.01;;
67398;Laerm;57728;50.448;18.824;2022-08-19T05:04:58;33.85;31.40;41.54;;
67398;Laerm;57728;50.448;18.824;2022-08-19T05:07:01;33.08;31.34;37.30;;
67398;Laerm;57728;50.448;18.824;2022-08-19T05:09:04;37.77;31.66;52.37;;
67398;Laerm;57728;50.448;18.824;2022-08-19T05:11:16;34.04;31.82;43.48;;
67398;Laerm;57728;50.448;18.824;2022-08-19T05:13:19;33.23;31.42;39.49;;
67398;Laerm;57728;50.448;18.824;2022-08-19T05:15:21;34.13;31.61;42.55;;
67398;Laerm;57728;50.448;18.824;2022-08-19T05:17:23;33.36;31.50;42.74;;
67398;Laerm;57728;50.448;18.824;2022-08-19T05:19:24;34.55;31.90;47.52;;
67398;Laerm;57728;50.448;18.824;2022-08-19T05:21:46;33.84;31.59;43.32;;
67398;Laerm;57728;50.448;18.824;2022-08-19T05:24:07;33.55;31.71;41.98;;
67398;Laerm;57728;50.448;18.824;2022-08-19T05:26:11;33.80;31.56;45.29;;
67398;Laerm;57728;50.448;18.824;2022-08-19T05:28:13;33.36;31.70;41.93;;
67398;Laerm;57728;50.448;18.824;2022-08-19T05:30:16;36.69;31.64;51.76;;
67398;Laerm;57728;50.448;18.824;2022-08-19T05:32:17;43.18;32.20;52.40;;
67398;Laerm;57728;50.448;18.824;2022-08-19T05:34:22;34.40;31.24;45.21;;
67398;Laerm;57728;50.448;18.824;2022-08-19T05:36:28;33.68;31.29;40.69;;
67398;Laerm;57728;50.448;18.824;2022-08-19T05:38:29;34.63;31.63;41.24;;
67398;Laerm;57728;50.448;18.824;2022-08-19T05:40:38;33.79;31.68;42.27;;
67398;Laerm;57728;50.448;18.824;2022-08-19T05:42:39;35.85;31.53;48.46;;
67398;Laerm;57728;50.448;18.824;2022-08-19T05:44:43;34.95;31.44;45.69;;
67398;Laerm;57728;50.448;18.824;2022-08-19T05:46:46;35.50;32.53;44.43;;
67398;Laerm;57728;50.448;18.824;2022-08-19T05:48:54;35.58;31.83;51.53;;
67398;Laerm;57728;50.448;18.824;2022-08-19T05:50:57;34.40;31.11;42.56;;
67398;Laerm;57728;50.448;18.824;2022-08-19T05:53:00;33.85;31.67;44.96;;
67398;Laerm;57728;50.448;18.824;2022-08-19T05:55:01;34.61;31.94;44.93;;
67398;Laerm;57728;50.448;18.824;2022-08-19T05:57:02;33.76;31.82;48.99;;
67398;Laerm;57728;50.448;18.824;2022-08-19T05:59:07;34.85;32.08;43.40;;
67398;Laerm;57728;50.448;18.824;2022-08-19T06:01:14;36.11;31.78;48.74;;
67398;Laerm;57728;50.448;18.824;2022-08-19T06:03:15;35.82;31.81;45.17;;
67398;Laerm;57728;50.448;18.824;2022-08-19T06:05:17;33.66;31.84;42.52;;
67398;Laerm;57728;50.448;18.824;2022-08-19T06:07:20;33.84;31.63;41.59;;
67398;Laerm;57728;50.448;18.824;2022-08-19T06:09:22;33.61;31.50;38.86;;
67398;Laerm;57728;50.448;18.824;2022-08-19T06:11:42;34.73;31.76;42.82;;
67398;Laerm;57728;50.448;18.824;2022-08-19T06:13:48;34.46;31.61;46.63;;
67398;Laerm;57728;50.448;18.824;2022-08-19T06:15:53;34.75;31.61;41.85;;
67398;Laerm;57728;50.448;18.824;2022-08-19T06:17:55;34.98;32.01;45.03;;
67398;Laerm;57728;50.448;18.824;2022-08-19T06:19:56;35.54;31.79;49.59;;
67398;Laerm;57728;50.448;18.824;2022-08-19T06:22:00;34.50;31.89;42.95;;
67398;Laerm;57728;50.448;18.824;2022-08-19T06:24:05;33.73;31.65;40.39;;
67398;Laerm;57728;50.448;18.824;2022-08-19T06:26:12;35.92;31.82;50.44;;
67398;Laerm;57728;50.448;18.824;2022-08-19T06:28:13;33.65;31.16;42.57;;
67398;Laerm;57728;50.448;18.824;2022-08-19T06:30:15;34.73;31.57;49.36;;
67398;Laerm;57728;50.448;18.824;2022-08-19T06:32:18;33.75;31.52;52.55;;
67398;Laerm;57728;50.448;18.824;2022-08-19T06:34:22;34.71;31.56;44.14;;
67398;Laerm;57728;50.448;18.824;2022-08-19T06:36:30;33.00;31.33;47.24;;
67398;Laerm;57728;50.448;18.824;2022-08-19T06:38:34;33.42;31.23;42.34;;
67398;Laerm;57728;50.448;18.824;2022-08-19T06:40:36;34.60;31.39;54.41;;
67398;Laerm;57728;50.448;18.824;2022-08-19T06:42:39;33.84;31.87;43.37;;
67398;Laerm;57728;50.448;18.824;2022-08-19T06:44:44;33.89;31.76;45.46;;
67398;Laerm;57728;50.448;18.824;2022-08-19T06:46:46;37.50;31.72;61.71;;
67398;Laerm;57728;50.448;18.824;2022-08-19T06:48:49;34.26;31.73;45.12;;
67398;Laerm;57728;50.448;18.824;2022-08-19T06:50:50;34.98;31.51;54.04;;
67398;Laerm;57728;50.448;18.824;2022-08-19T06:52:52;33.93;31.55;48.66;;
67398;Laerm;57728;50.448;18.824;2022-08-19T06:54:54;34.24;31.58;46.57;;
67398;Laerm;57728;50.448;18.824;2022-08-19T06:56:59;33.97;31.70;44.82;;
67398;Laerm;57728;50.448;18.824;2022-08-19T06:59:10;34.13;31.62;41.88;;
67398;Laerm;57728;50.448;18.824;2022-08-19T07:01:13;33.38;31.61;44.85;;
67398;Laerm;57728;50.448;18.824;2022-08-19T07:03:14;34.55;31.43;46.79;;
67398;Laerm;57728;50.448;18.824;2022-08-19T07:05:15;34.69;31.57;51.93;;
67398;Laerm;57728;50.448;18.824;2022-08-19T07:07:20;34.70;31.29;55.44;;
67398;Laerm;57728;50.448;18.824;2022-08-19T07:09:22;35.77;31.73;54.93;;
67398;Laerm;57728;50.448;18.824;2022-08-19T07:11:23;36.46;31.65;56.77;;
67398;Laerm;57728;50.448;18.824;2022-08-19T07:13:26;39.16;31.45;60.92;;
67398;Laerm;57728;50.448;18.824;2022-08-19T07:15:27;38.35;31.44;50.53;;
67398;Laerm;57728;50.448;18.824;2022-08-19T07:17:28;40.89;33.00;50.36;;
67398;Laerm;57728;50.448;18.824;2022-08-19T07:19:30;37.82;31.75;47.14;;
67398;Laerm;57728;50.448;18.824;2022-08-19T07:21:32;37.79;31.40;60.94;;
67398;Laerm;57728;50.448;18.824;2022-08-19T07:23:34;37.41;31.16;55.33;;
67398;Laerm;57728;50.448;18.824;2022-08-19T07:25:37;36.08;31.49;56.24;;
67398;Laerm;57728;50.448;18.824;2022-08-19T07:27:39;36.56;30.96;60.75;;
67398;Laerm;57728;50.448;18.824;2022-08-19T07:29:40;35.57;31.43;42.92;;
67398;Laerm;57728;50.448;18.824;2022-08-19T07:31:42;38.39;31.67;59.61;;
67398;Laerm;57728;50.448;18.824;2022-08-19T07:33:45;35.97;31.06;47.86;;
67398;Laerm;57728;50.448;18.824;2022-08-19T07:35:47;33.32;31.04;46.10;;
67398;Laerm;57728;50.448;18.824;2022-08-19T07:37:50;38.43;31.30;62.72;;
67398;Laerm;57728;50.448;18.824;2022-08-19T07:39:51;37.02;31.20;62.28;;
67398;Laerm;57728;50.448;18.824;2022-08-19T07:41:54;34.99;31.26;51.59;;
67398;Laerm;57728;50.448;18.824;2022-08-19T07:43:59;35.31;31.17;46.90;;
67398;Laerm;57728;50.448;18.824;2022-08-19T07:46:05;38.58;31.59;57.39;;
67398;Laerm;57728;50.448;18.824;2022-08-19T07:48:06;36.13;31.41;51.54;;
67398;Laerm;57728;50.448;18.824;2022-08-19T07:50:11;35.63;31.16;44.90;;
67398;Laerm;57728;50.448;18.824;2022-08-19T07:52:12;33.28;30.90;41.15;;
67398;Laerm;57728;50.448;18.824;2022-08-19T07:54:13;34.51;31.15;49.50;;
67398;Laerm;57728;50.448;18.824;2022-08-19T07:56:20;35.09;31.09;50.44;;
67398;Laerm;57728;50.448;18.824;2022-08-19T07:58:22;35.69;31.23;50.07;;
67398;Laerm;57728;50.448;18.824;2022-08-19T08:00:24;35.43;31.37;58.45;;
67398;Laerm;57728;50.448;18.824;2022-08-19T08:02:26;33.24;30.90;46.24;;
67398;Laerm;57728;50.448;18.824;2022-08-19T08:04:29;34.22;31.36;46.56;;
67398;Laerm;57728;50.448;18.824;2022-08-19T08:06:49;35.98;31.12;55.93;;
67398;Laerm;57728;50.448;18.824;2022-08-19T08:09:12;34.59;31.16;52.58;;
67398;Laerm;57728;50.448;18.824;2022-08-19T08:11:22;36.46;31.07;58.70;;
67398;Laerm;57728;50.448;18.824;2022-08-19T08:13:25;36.80;31.58;47.51;;
67398;Laerm;57728;50.448;18.824;2022-08-19T08:15:27;36.02;31.21;49.68;;
67398;Laerm;57728;50.448;18.824;2022-08-19T08:17:30;38.59;31.42;56.93;;
67398;Laerm;57728;50.448;18.824;2022-08-19T08:19:32;37.83;31.41;51.57;;
67398;Laerm;57728;50.448;18.824;2022-08-19T08:21:35;36.30;30.99;56.16;;
67398;Laerm;57728;50.448;18.824;2022-08-19T08:23:36;36.76;30.94;55.09;;
67398;Laerm;57728;50.448;18.824;2022-08-19T08:25:38;36.47;30.81;53.80;;
67398;Laerm;57728;50.448;18.824;2022-08-19T08:27:43;40.36;30.95;61.63;;
67398;Laerm;57728;50.448;18.824;2022-08-19T08:29:45;44.15;31.66;61.55;;
67398;Laerm;57728;50.448;18.824;2022-08-19T08:31:47;46.32;31.27;64.80;;
67398;Laerm;57728;50.448;18.824;2022-08-19T08:33:49;43.12;31.34;63.15;;
67398;Laerm;57728;50.448;18.824;2022-08-19T08:35:50;44.81;31.72;60.26;;
67398;Laerm;57728;50.448;18.824;2022-08-19T08:37:55;36.77;31.34;53.10;;
67398;Laerm;57728;50.448;18.824;2022-08-19T08:39:58;42.05;31.51;59.95;;
67398;Laerm;57728;50.448;18.824;2022-08-19T08:42:32;34.84;30.96;45.30;;
67398;Laerm;57728;50.448;18.824;2022-08-19T08:45:00;36.68;31.07;46.44;;
67398;Laerm;57728;50.448;18.824;2022-08-19T08:47:13;35.05;31.31;46.78;;
67398;Laerm;57728;50.448;18.824;2022-08-19T08:51:52;37.08;31.08;60.06;;
67398;Laerm;57728;50.448;18.824;2022-08-19T08:53:57;36.59;30.99;54.49;;
67398;Laerm;57728;50.448;18.824;2022-08-19T08:56:04;35.03;31.12;50.45;;
67398;Laerm;57728;50.448;18.824;2022-08-19T08:58:58;37.34;31.29;55.59;;
67398;Laerm;57728;50.448;18.824;2022-08-19T09:01:27;36.22;30.73;56.83;;
67398;Laerm;57728;50.448;18.824;2022-08-19T09:03:29;40.05;30.91;50.85;;
67398;Laerm;57728;50.448;18.824;2022-08-19T09:06:13;40.43;30.88;51.93;;
67398;Laerm;57728;50.448;18.824;2022-08-19T09:08:48;36.73;30.92;52.98;;
67398;Laerm;57728;50.448;18.824;2022-08-19T09:10:56;35.23;30.86;47.34;;
67398;Laerm;57728;50.448;18.824;2022-08-19T09:13:35;33.67;30.64;49.14;;
67398;Laerm;57728;50.448;18.824;2022-08-19T09:15:47;33.47;30.64;45.82;;
67398;Laerm;57728;50.448;18.824;2022-08-19T09:17:50;33.99;30.87;49.94;;
67398;Laerm;57728;50.448;18.824;2022-08-19T09:20:22;34.14;30.84;47.35;;
67398;Laerm;57728;50.448;18.824;2022-08-19T09:22:28;37.72;31.14;48.82;;
67398;Laerm;57728;50.448;18.824;2022-08-19T09:24:39;33.99;31.05;53.74;;
67398;Laerm;57728;50.448;18.824;2022-08-19T09:26:40;37.32;30.79;50.97;;
67398;Laerm;57728;50.448;18.824;2022-08-19T09:28:48;38.42;30.97;53.72;;
67398;Laerm;57728;50.448;18.824;2022-08-19T09:30:51;39.28;30.91;51.21;;
67398;Laerm;57728;50.448;18.824;2022-08-19T09:32:53;38.82;31.02;50.80;;
67398;Laerm;57728;50.448;18.824;2022-08-19T09:34:55;37.76;30.77;49.93;;
67398;Laerm;57728;50.448;18.824;2022-08-19T09:36:59;34.38;30.73;49.21;;
67398;Laerm;57728;50.448;18.824;2022-08-19T09:39:03;34.55;30.87;49.63;;
67398;Laerm;57728;50.448;18.824;2022-08-19T09:41:18;36.17;30.87;52.43;;
67398;Laerm;57728;50.448;18.824;2022-08-19T09:43:47;34.70;30.81;44.96;;
67398;Laerm;57728;50.448;18.824;2022-08-19T09:45:48;34.64;30.99;58.14;;
67398;Laerm;57728;50.448;18.824;2022-08-19T09:47:52;34.65;30.98;47.98;;
67398;Laerm;57728;50.448;18.824;2022-08-19T09:49:55;36.74;30.97;52.15;;
67398;Laerm;57728;50.448;18.824;2022-08-19T09:51:56;34.15;30.53;53.37;;
67398;Laerm;57728;50.448;18.824;2022-08-19T09:54:02;38.07;30.71;57.86;;
67398;Laerm;57728;50.448;18.824;2022-08-19T09:56:06;36.58;31.13;52.63;;
67398;Laerm;57728;50.448;18.824;2022-08-19T09:58:07;42.15;30.94;60.72;;
67398;Laerm;57728;50.448;18.824;2022-08-19T10:00:09;38.43;31.37;58.93;;
67398;Laerm;57728;50.448;18.824;2022-08-19T10:02:12;39.46;31.12;58.53;;
67398;Laerm;57728;50.448;18.824;2022-08-19T10:04:13;34.04;31.02;49.58;;
67398;Laerm;57728;50.448;18.824;2022-08-19T10:06:14;34.94;31.11;45.94;;
67398;Laerm;57728;50.448;18.824;2022-08-19T10:08:33;33.92;30.90;45.23;;
67398;Laerm;57728;50.448;18.824;2022-08-19T10:10:37;34.98;30.96;56.95;;
67398;Laerm;57728;50.448;18.824;2022-08-19T10:12:38;35.04;31.53;47.02;;
67398;Laerm;57728;50.448;18.824;2022-08-19T10:14:41;34.42;31.10;46.67;;
67398;Laerm;57728;50.448;18.824;2022-08-19T10:16:43;36.74;30.67;55.39;;
67398;Laerm;57728;50.448;18.824;2022-08-19T10:18:44;42.96;30.78;66.03;;
67398;Laerm;57728;50.448;18.824;2022-08-19T10:20:48;37.03;31.03;54.31;;
67398;Laerm;57728;50.448;18.824;2022-08-19T10:22:49;37.08;30.94;55.62;;
67398;Laerm;57728;50.448;18.824;2022-08-19T10:24:50;33.57;30.62;46.79;;
67398;Laerm;57728;50.448;18.824;2022-08-19T10:26:53;38.03;31.09;55.23;;
67398;Laerm;57728;50.448;18.824;2022-08-19T10:28:56;35.03;30.60;50.14;;
67398;Laerm;57728;50.448;18.824;2022-08-19T10:31:16;34.34;30.88;50.54;;
67398;Laerm;57728;50.448;18.824;2022-08-19T10:33:19;33.29;30.52;54.01;;
67398;Laerm;57728;50.448;18.824;2022-08-19T10:35:20;33.89;30.74;49.82;;
67398;Laerm;57728;50.448;18.824;2022-08-19T10:37:21;32.96;30.61;44.97;;
67398;Laerm;57728;50.448;18.824;2022-08-19T10:39:23;33.38;30.17;43.82;;
67398;Laerm;57728;50.448;18.824;2022-08-19T10:41:29;39.09;30.76;59.60;;
67398;Laerm;57728;50.448;18.824;2022-08-19T10:43:31;34.87;30.73;51.61;;
67398;Laerm;57728;50.448;18.824;2022-08-19T10:45:33;36.53;30.68;54.19;;
67398;Laerm;57728;50.448;18.824;2022-08-19T10:47:35;36.79;30.57;60.25;;
67398;Laerm;57728;50.448;18.824;2022-08-19T10:49:37;34.83;31.40;48.18;;
67398;Laerm;57728;50.448;18.824;2022-08-19T10:51:58;35.88;30.40;45.87;;
67398;Laerm;57728;50.448;18.824;2022-08-19T10:54:19;32.65;30.41;43.26;;
67398;Laerm;57728;50.448;18.824;2022-08-19T10:56:20;32.13;30.40;44.70;;
67398;Laerm;57728;50.448;18.824;2022-08-19T10:58:41;33.25;30.50;50.13;;
67398;Laerm;57728;50.448;18.824;2022-08-19T11:00:43;35.52;30.72;48.76;;
67398;Laerm;57728;50.448;18.824;2022-08-19T11:02:44;34.40;30.89;54.03;;
67398;Laerm;57728;50.448;18.824;2022-08-19T11:04:47;34.50;30.65;45.74;;
67398;Laerm;57728;50.448;18.824;2022-08-19T11:06:50;33.32;30.71;42.99;;
67398;Laerm;57728;50.448;18.824;2022-08-19T11:08:55;34.21;30.64;55.90;;
67398;Laerm;57728;50.448;18.824;2022-08-19T11:11:00;34.58;30.58;55.26;;
67398;Laerm;57728;50.448;18.824;2022-08-19T11:13:03;32.48;30.42;44.18;;
67398;Laerm;57728;50.448;18.824;2022-08-19T11:15:07;34.45;30.59;54.20;;
67398;Laerm;57728;50.448;18.824;2022-08-19T11:17:13;33.85;30.75;44.80;;
67398;Laerm;57728;50.448;18.824;2022-08-19T11:19:16;33.51;30.97;47.82;;
67398;Laerm;57728;50.448;18.824;2022-08-19T11:23:26;35.71;30.87;51.71;;
67398;Laerm;57728;50.448;18.824;2022-08-19T11:25:27;37.35;30.87;57.27;;
67398;Laerm;57728;50.448;18.824;2022-08-19T11:27:28;35.55;30.93;46.94;;
67398;Laerm;57728;50.448;18.824;2022-08-19T11:29:32;40.43;31.27;60.96;;
67398;Laerm;57728;50.448;18.824;2022-08-19T11:31:35;37.54;30.86;54.51;;
67398;Laerm;57728;50.448;18.824;2022-08-19T11:33:38;35.97;30.88;53.69;;